Pagina principală
METAR-TAF:

METAR-TAF

Aeroporturi :

Skopje, Macedonia

Latitudine: 41-58N, longitudine: 021-39E, elevație: 238 m

Observații meteo curente

Raportul a fost făcut în urmă cu 38 de minute, la 14:50 UTC
Vânt 3 kt din direcții variabile
Temperatură 37°C
Umiditate 31%
Presiune 1008 hPa
Vizibilitate de 10 km sau mai mult
nu există nori sub 1.500 m și nici cumulonimbus

METAR: LWSK 121450Z VRB03KT CAVOK 37/17 Q1008 NOSIG

Ora: 17:28 (15:28 UTC)

Prognoză

Raportul a fost făcut în urmă cu 43 de minute, la 14:45 UTC
Prognoză valabilă de la 12 ora 15 UTC la 13 ora 15 UTC
Vânt 2 kt din direcții variabile
Vizibilitate de 10 km sau mai mult
nu există nori sub 1.500 m și nici cumulonimbus

TAF: LWSK 121445Z 1215/1315 VRB02KT CAVOK

Observații și prognoze meteo pentru peste 4.000 de aeroporturi (rapoarte METAR și TAF).

Stațiile disponibile sunt reprezentate pe hartă prin puncte galbene și roșii.

Țineți indicatorul mouse-ului pe punctul dorit pentru a vedea denumirea stației.

Apoi, faceți clic pentru a vedea observațiile și prognozele meteorologice.

Pentru a schimba harta: Pentru mărire, faceți clic pe butoanele verzi cu cruce neagră; pentru micșorare, pe butonul verde cu o liniuță; pentru hărți învecinate, pe săgețile verzi.


METAR-TAF: